sensor_id;sensor_type;location;lat;lon;timestamp;P1;durP1;ratioP1;P2;durP2;ratioP2
23376;SDS011;14353;46.070;13.222;2023-03-01T00:01:29;4.00;;;3.60;;
23376;SDS011;14353;46.070;13.222;2023-03-01T00:03:55;4.38;;;3.60;;
23376;SDS011;14353;46.070;13.222;2023-03-01T00:06:22;4.25;;;3.75;;
23376;SDS011;14353;46.070;13.222;2023-03-01T00:08:48;4.78;;;4.00;;
23376;SDS011;14353;46.070;13.222;2023-03-01T00:11:19;4.65;;;4.00;;
23376;SDS011;14353;46.070;13.222;2023-03-01T00:13:54;5.00;;;3.85;;
23376;SDS011;14353;46.070;13.222;2023-03-01T00:16:26;4.75;;;3.80;;
23376;SDS011;14353;46.070;13.222;2023-03-01T00:18:54;4.20;;;3.80;;
23376;SDS011;14353;46.070;13.222;2023-03-01T00:21:21;4.88;;;3.80;;
23376;SDS011;14353;46.070;13.222;2023-03-01T00:23:47;4.47;;;3.47;;
23376;SDS011;14353;46.070;13.222;2023-03-01T00:26:13;4.45;;;3.60;;
23376;SDS011;14353;46.070;13.222;2023-03-01T00:28:40;4.85;;;3.80;;
23376;SDS011;14353;46.070;13.222;2023-03-01T00:31:11;4.38;;;3.78;;
23376;SDS011;14353;46.070;13.222;2023-03-01T00:33:42;4.60;;;3.90;;
23376;SDS011;14353;46.070;13.222;2023-03-01T00:36:09;4.47;;;3.72;;
23376;SDS011;14353;46.070;13.222;2023-03-01T00:38:36;4.70;;;3.63;;
23376;SDS011;14353;46.070;13.222;2023-03-01T00:41:04;4.90;;;3.75;;
23376;SDS011;14353;46.070;13.222;2023-03-01T00:43:31;4.00;;;3.60;;
23376;SDS011;14353;46.070;13.222;2023-03-01T00:46:01;4.07;;;3.65;;
23376;SDS011;14353;46.070;13.222;2023-03-01T00:48:33;4.18;;;3.78;;
23376;SDS011;14353;46.070;13.222;2023-03-01T00:51:06;4.20;;;3.58;;
23376;SDS011;14353;46.070;13.222;2023-03-01T00:53:36;3.83;;;3.30;;
23376;SDS011;14353;46.070;13.222;2023-03-01T00:56:02;5.20;;;3.88;;
23376;SDS011;14353;46.070;13.222;2023-03-01T00:58:29;4.25;;;3.85;;
23376;SDS011;14353;46.070;13.222;2023-03-01T01:00:55;4.07;;;3.58;;
23376;SDS011;14353;46.070;13.222;2023-03-01T01:03:21;4.50;;;3.92;;
23376;SDS011;14353;46.070;13.222;2023-03-01T01:05:47;4.65;;;3.63;;
23376;SDS011;14353;46.070;13.222;2023-03-01T01:08:12;4.75;;;3.50;;
23376;SDS011;14353;46.070;13.222;2023-03-01T01:10:38;4.22;;;3.83;;
23376;SDS011;14353;46.070;13.222;2023-03-01T01:13:04;3.80;;;3.40;;
23376;SDS011;14353;46.070;13.222;2023-03-01T01:15:33;4.30;;;3.88;;
23376;SDS011;14353;46.070;13.222;2023-03-01T01:17:59;4.80;;;4.05;;
23376;SDS011;14353;46.070;13.222;2023-03-01T01:20:25;4.45;;;3.83;;
23376;SDS011;14353;46.070;13.222;2023-03-01T01:22:51;4.78;;;3.90;;
23376;SDS011;14353;46.070;13.222;2023-03-01T01:25:17;4.18;;;3.28;;
23376;SDS011;14353;46.070;13.222;2023-03-01T01:27:43;4.80;;;3.47;;
23376;SDS011;14353;46.070;13.222;2023-03-01T01:30:09;4.30;;;3.78;;
23376;SDS011;14353;46.070;13.222;2023-03-01T01:32:35;4.15;;;3.60;;
23376;SDS011;14353;46.070;13.222;2023-03-01T01:35:01;4.07;;;3.50;;
23376;SDS011;14353;46.070;13.222;2023-03-01T01:37:26;5.13;;;3.85;;
23376;SDS011;14353;46.070;13.222;2023-03-01T01:39:59;4.05;;;3.42;;
23376;SDS011;14353;46.070;13.222;2023-03-01T01:42:28;3.70;;;3.35;;
23376;SDS011;14353;46.070;13.222;2023-03-01T01:47:48;5.10;;;3.72;;
23376;SDS011;14353;46.070;13.222;2023-03-01T01:50:16;4.65;;;3.75;;
23376;SDS011;14353;46.070;13.222;2023-03-01T01:52:43;4.13;;;3.45;;
23376;SDS011;14353;46.070;13.222;2023-03-01T01:55:11;3.85;;;3.45;;
23376;SDS011;14353;46.070;13.222;2023-03-01T01:57:46;3.88;;;3.47;;
23376;SDS011;14353;46.070;13.222;2023-03-01T02:00:16;4.85;;;4.05;;
23376;SDS011;14353;46.070;13.222;2023-03-01T02:02:45;4.60;;;3.70;;
23376;SDS011;14353;46.070;13.222;2023-03-01T02:05:20;4.30;;;3.60;;
23376;SDS011;14353;46.070;13.222;2023-03-01T02:08:01;4.30;;;3.70;;
23376;SDS011;14353;46.070;13.222;2023-03-01T02:10:27;4.13;;;3.30;;
23376;SDS011;14353;46.070;13.222;2023-03-01T02:12:53;4.10;;;3.55;;
23376;SDS011;14353;46.070;13.222;2023-03-01T02:15:21;4.07;;;3.67;;
23376;SDS011;14353;46.070;13.222;2023-03-01T02:17:48;4.75;;;3.60;;
23376;SDS011;14353;46.070;13.222;2023-03-01T02:22:57;4.93;;;4.07;;
23376;SDS011;14353;46.070;13.222;2023-03-01T02:30:56;4.38;;;3.60;;
23376;SDS011;14353;46.070;13.222;2023-03-01T02:33:41;3.90;;;3.38;;
23376;SDS011;14353;46.070;13.222;2023-03-01T02:36:10;3.95;;;3.30;;
23376;SDS011;14353;46.070;13.222;2023-03-01T02:38:40;5.22;;;3.63;;
23376;SDS011;14353;46.070;13.222;2023-03-01T02:41:06;3.97;;;3.55;;
23376;SDS011;14353;46.070;13.222;2023-03-01T02:43:34;3.90;;;3.50;;
23376;SDS011;14353;46.070;13.222;2023-03-01T02:46:05;3.67;;;3.10;;
23376;SDS011;14353;46.070;13.222;2023-03-01T02:48:40;4.15;;;3.40;;
23376;SDS011;14353;46.070;13.222;2023-03-01T02:56:43;3.90;;;3.45;;
23376;SDS011;14353;46.070;13.222;2023-03-01T02:59:14;4.68;;;3.60;;
23376;SDS011;14353;46.070;13.222;2023-03-01T03:01:42;4.32;;;3.55;;
23376;SDS011;14353;46.070;13.222;2023-03-01T03:04:09;4.18;;;3.50;;
23376;SDS011;14353;46.070;13.222;2023-03-01T03:06:36;4.53;;;3.70;;
23376;SDS011;14353;46.070;13.222;2023-03-01T03:09:03;4.20;;;3.53;;
23376;SDS011;14353;46.070;13.222;2023-03-01T03:11:29;4.47;;;3.53;;
23376;SDS011;14353;46.070;13.222;2023-03-01T03:13:57;4.13;;;3.70;;
23376;SDS011;14353;46.070;13.222;2023-03-01T03:16:23;4.00;;;3.45;;
23376;SDS011;14353;46.070;13.222;2023-03-01T03:18:49;3.47;;;3.13;;
23376;SDS011;14353;46.070;13.222;2023-03-01T03:21:16;4.70;;;3.83;;
23376;SDS011;14353;46.070;13.222;2023-03-01T03:23:42;4.18;;;3.70;;
23376;SDS011;14353;46.070;13.222;2023-03-01T03:26:08;4.03;;;3.20;;
23376;SDS011;14353;46.070;13.222;2023-03-01T03:28:38;4.50;;;3.63;;
23376;SDS011;14353;46.070;13.222;2023-03-01T03:31:05;4.25;;;3.50;;
23376;SDS011;14353;46.070;13.222;2023-03-01T03:33:31;4.55;;;3.47;;
23376;SDS011;14353;46.070;13.222;2023-03-01T03:35:57;4.00;;;3.60;;
23376;SDS011;14353;46.070;13.222;2023-03-01T03:38:23;4.60;;;3.40;;
23376;SDS011;14353;46.070;13.222;2023-03-01T03:40:50;3.90;;;3.40;;
23376;SDS011;14353;46.070;13.222;2023-03-01T03:43:26;3.63;;;3.33;;
23376;SDS011;14353;46.070;13.222;2023-03-01T03:45:51;4.15;;;3.63;;
23376;SDS011;14353;46.070;13.222;2023-03-01T03:48:19;4.22;;;3.40;;
23376;SDS011;14353;46.070;13.222;2023-03-01T03:50:49;4.03;;;3.60;;
23376;SDS011;14353;46.070;13.222;2023-03-01T03:53:17;4.55;;;3.35;;
23376;SDS011;14353;46.070;13.222;2023-03-01T03:55:43;3.90;;;3.50;;
23376;SDS011;14353;46.070;13.222;2023-03-01T03:58:09;4.47;;;3.75;;
23376;SDS011;14353;46.070;13.222;2023-03-01T04:00:37;4.10;;;3.63;;
23376;SDS011;14353;46.070;13.222;2023-03-01T04:03:05;3.85;;;3.40;;
23376;SDS011;14353;46.070;13.222;2023-03-01T04:05:31;4.97;;;3.83;;
23376;SDS011;14353;46.070;13.222;2023-03-01T04:07:57;5.47;;;3.60;;
23376;SDS011;14353;46.070;13.222;2023-03-01T04:10:28;4.07;;;3.42;;
23376;SDS011;14353;46.070;13.222;2023-03-01T04:12:55;3.60;;;3.17;;
23376;SDS011;14353;46.070;13.222;2023-03-01T04:15:21;3.95;;;3.53;;
23376;SDS011;14353;46.070;13.222;2023-03-01T04:17:49;4.75;;;3.95;;
23376;SDS011;14353;46.070;13.222;2023-03-01T04:20:17;4.53;;;3.47;;
23376;SDS011;14353;46.070;13.222;2023-03-01T04:23:01;3.60;;;3.05;;
23376;SDS011;14353;46.070;13.222;2023-03-01T04:25:41;4.53;;;3.72;;
23376;SDS011;14353;46.070;13.222;2023-03-01T04:28:11;5.22;;;3.67;;
23376;SDS011;14353;46.070;13.222;2023-03-01T04:30:37;4.50;;;3.17;;
23376;SDS011;14353;46.070;13.222;2023-03-01T04:33:04;3.55;;;3.25;;
23376;SDS011;14353;46.070;13.222;2023-03-01T04:35:31;4.38;;;3.50;;
23376;SDS011;14353;46.070;13.222;2023-03-01T04:37:57;3.80;;;3.40;;
23376;SDS011;14353;46.070;13.222;2023-03-01T04:40:23;4.18;;;3.28;;
23376;SDS011;14353;46.070;13.222;2023-03-01T04:42:49;4.10;;;3.47;;
23376;SDS011;14353;46.070;13.222;2023-03-01T04:45:15;4.20;;;3.80;;
23376;SDS011;14353;46.070;13.222;2023-03-01T04:47:41;5.60;;;3.67;;
23376;SDS011;14353;46.070;13.222;2023-03-01T04:50:10;4.03;;;3.40;;
23376;SDS011;14353;46.070;13.222;2023-03-01T04:52:37;4.00;;;3.60;;
23376;SDS011;14353;46.070;13.222;2023-03-01T04:55:03;3.70;;;3.40;;
23376;SDS011;14353;46.070;13.222;2023-03-01T04:57:30;3.47;;;3.17;;
23376;SDS011;14353;46.070;13.222;2023-03-01T04:59:56;4.07;;;3.50;;
23376;SDS011;14353;46.070;13.222;2023-03-01T05:02:21;4.45;;;3.67;;
23376;SDS011;14353;46.070;13.222;2023-03-01T05:04:47;3.67;;;3.30;;
23376;SDS011;14353;46.070;13.222;2023-03-01T05:07:13;4.18;;;3.35;;
23376;SDS011;14353;46.070;13.222;2023-03-01T05:09:44;4.63;;;3.50;;
23376;SDS011;14353;46.070;13.222;2023-03-01T05:12:11;4.57;;;3.60;;
23376;SDS011;14353;46.070;13.222;2023-03-01T05:14:37;4.25;;;3.13;;
23376;SDS011;14353;46.070;13.222;2023-03-01T05:17:04;3.83;;;3.20;;
23376;SDS011;14353;46.070;13.222;2023-03-01T05:19:30;3.70;;;3.40;;
23376;SDS011;14353;46.070;13.222;2023-03-01T05:21:56;3.45;;;3.15;;
23376;SDS011;14353;46.070;13.222;2023-03-01T05:24:31;4.15;;;3.60;;
23376;SDS011;14353;46.070;13.222;2023-03-01T05:26:59;4.13;;;3.40;;
23376;SDS011;14353;46.070;13.222;2023-03-01T05:29:26;5.40;;;3.72;;
23376;SDS011;14353;46.070;13.222;2023-03-01T05:31:54;4.05;;;3.30;;
23376;SDS011;14353;46.070;13.222;2023-03-01T05:34:28;4.55;;;3.60;;
23376;SDS011;14353;46.070;13.222;2023-03-01T05:36:58;3.85;;;3.30;;
23376;SDS011;14353;46.070;13.222;2023-03-01T05:39:24;3.85;;;3.20;;
23376;SDS011;14353;46.070;13.222;2023-03-01T05:41:52;3.63;;;3.33;;
23376;SDS011;14353;46.070;13.222;2023-03-01T05:44:19;4.00;;;3.33;;
23376;SDS011;14353;46.070;13.222;2023-03-01T05:46:45;3.85;;;3.40;;
23376;SDS011;14353;46.070;13.222;2023-03-01T05:49:12;3.97;;;3.55;;
23376;SDS011;14353;46.070;13.222;2023-03-01T05:51:40;3.90;;;3.50;;
23376;SDS011;14353;46.070;13.222;2023-03-01T05:54:06;3.90;;;3.40;;
23376;SDS011;14353;46.070;13.222;2023-03-01T05:56:33;3.53;;;3.22;;
23376;SDS011;14353;46.070;13.222;2023-03-01T05:59:00;3.60;;;3.30;;
23376;SDS011;14353;46.070;13.222;2023-03-01T06:01:26;4.10;;;3.70;;
23376;SDS011;14353;46.070;13.222;2023-03-01T06:03:52;4.18;;;3.75;;
23376;SDS011;14353;46.070;13.222;2023-03-01T06:06:18;4.07;;;3.58;;
23376;SDS011;14353;46.070;13.222;2023-03-01T06:08:44;4.10;;;3.42;;
23376;SDS011;14353;46.070;13.222;2023-03-01T06:11:09;4.10;;;3.55;;
23376;SDS011;14353;46.070;13.222;2023-03-01T06:13:35;3.95;;;3.55;;
23376;SDS011;14353;46.070;13.222;2023-03-01T06:16:03;3.80;;;3.40;;
23376;SDS011;14353;46.070;13.222;2023-03-01T06:18:32;3.90;;;3.33;;
23376;SDS011;14353;46.070;13.222;2023-03-01T06:20:59;5.50;;;3.70;;
23376;SDS011;14353;46.070;13.222;2023-03-01T06:23:25;3.85;;;3.30;;
23376;SDS011;14353;46.070;13.222;2023-03-01T06:25:50;3.92;;;3.53;;
23376;SDS011;14353;46.070;13.222;2023-03-01T06:28:17;4.30;;;3.85;;
23376;SDS011;14353;46.070;13.222;2023-03-01T06:30:42;4.07;;;3.67;;
23376;SDS011;14353;46.070;13.222;2023-03-01T06:33:08;4.40;;;4.00;;
23376;SDS011;14353;46.070;13.222;2023-03-01T06:35:34;5.30;;;3.70;;
23376;SDS011;14353;46.070;13.222;2023-03-01T06:38:00;6.90;;;4.10;;
23376;SDS011;14353;46.070;13.222;2023-03-01T06:40:27;6.65;;;4.40;;
23376;SDS011;14353;46.070;13.222;2023-03-01T06:42:53;5.38;;;4.15;;
23376;SDS011;14353;46.070;13.222;2023-03-01T06:45:19;5.82;;;4.60;;
23376;SDS011;14353;46.070;13.222;2023-03-01T06:47:46;5.45;;;4.22;;
23376;SDS011;14353;46.070;13.222;2023-03-01T06:50:13;5.88;;;4.30;;
23376;SDS011;14353;46.070;13.222;2023-03-01T06:52:39;5.50;;;4.03;;
23376;SDS011;14353;46.070;13.222;2023-03-01T06:55:05;6.72;;;4.50;;
23376;SDS011;14353;46.070;13.222;2023-03-01T06:57:32;6.95;;;4.53;;
23376;SDS011;14353;46.070;13.222;2023-03-01T06:59:58;5.47;;;4.43;;
23376;SDS011;14353;46.070;13.222;2023-03-01T07:02:24;6.00;;;5.13;;
23376;SDS011;14353;46.070;13.222;2023-03-01T07:04:50;7.35;;;4.55;;
23376;SDS011;14353;46.070;13.222;2023-03-01T07:07:17;6.93;;;4.55;;
23376;SDS011;14353;46.070;13.222;2023-03-01T07:09:44;9.55;;;4.88;;
23376;SDS011;14353;46.070;13.222;2023-03-01T07:12:10;8.32;;;4.70;;
23376;SDS011;14353;46.070;13.222;2023-03-01T07:14:36;6.50;;;4.50;;
23376;SDS011;14353;46.070;13.222;2023-03-01T07:17:02;7.43;;;4.80;;
23376;SDS011;14353;46.070;13.222;2023-03-01T07:19:27;6.47;;;4.68;;
23376;SDS011;14353;46.070;13.222;2023-03-01T07:21:53;6.25;;;4.38;;
23376;SDS011;14353;46.070;13.222;2023-03-01T07:24:20;7.05;;;4.38;;
23376;SDS011;14353;46.070;13.222;2023-03-01T07:26:50;6.00;;;4.35;;
23376;SDS011;14353;46.070;13.222;2023-03-01T07:29:17;5.15;;;4.50;;
23376;SDS011;14353;46.070;13.222;2023-03-01T07:31:43;8.05;;;4.30;;
23376;SDS011;14353;46.070;13.222;2023-03-01T07:34:09;7.00;;;4.43;;
23376;SDS011;14353;46.070;13.222;2023-03-01T07:36:36;6.50;;;4.47;;
23376;SDS011;14353;46.070;13.222;2023-03-01T07:39:02;7.50;;;4.82;;
23376;SDS011;14353;46.070;13.222;2023-03-01T07:41:28;6.68;;;4.60;;
23376;SDS011;14353;46.070;13.222;2023-03-01T07:43:55;7.88;;;4.50;;
23376;SDS011;14353;46.070;13.222;2023-03-01T07:46:21;7.60;;;4.13;;
23376;SDS011;14353;46.070;13.222;2023-03-01T07:48:46;7.70;;;4.40;;
23376;SDS011;14353;46.070;13.222;2023-03-01T07:51:12;6.35;;;4.40;;
23376;SDS011;14353;46.070;13.222;2023-03-01T07:53:38;6.07;;;4.00;;
23376;SDS011;14353;46.070;13.222;2023-03-01T07:56:05;5.65;;;4.55;;
23376;SDS011;14353;46.070;13.222;2023-03-01T07:58:33;7.03;;;4.32;;
23376;SDS011;14353;46.070;13.222;2023-03-01T08:01:01;5.63;;;4.47;;
23376;SDS011;14353;46.070;13.222;2023-03-01T08:03:28;6.57;;;4.30;;
23376;SDS011;14353;46.070;13.222;2023-03-01T08:05:53;5.78;;;4.15;;
23376;SDS011;14353;46.070;13.222;2023-03-01T08:08:19;6.28;;;4.38;;
23376;SDS011;14353;46.070;13.222;2023-03-01T08:10:45;6.32;;;4.43;;
23376;SDS011;14353;46.070;13.222;2023-03-01T08:13:11;5.40;;;4.03;;
23376;SDS011;14353;46.070;13.222;2023-03-01T08:15:36;5.70;;;4.18;;
23376;SDS011;14353;46.070;13.222;2023-03-01T08:18:02;6.00;;;4.00;;
23376;SDS011;14353;46.070;13.222;2023-03-01T08:20:28;6.32;;;4.05;;
23376;SDS011;14353;46.070;13.222;2023-03-01T08:22:54;8.05;;;4.47;;
23376;SDS011;14353;46.070;13.222;2023-03-01T08:25:19;10.38;;;4.70;;
23376;SDS011;14353;46.070;13.222;2023-03-01T08:27:45;5.97;;;4.30;;
23376;SDS011;14353;46.070;13.222;2023-03-01T08:30:11;6.75;;;4.50;;
23376;SDS011;14353;46.070;13.222;2023-03-01T08:32:38;7.00;;;4.50;;
23376;SDS011;14353;46.070;13.222;2023-03-01T08:35:04;6.35;;;4.38;;
23376;SDS011;14353;46.070;13.222;2023-03-01T08:37:31;6.60;;;4.88;;
23376;SDS011;14353;46.070;13.222;2023-03-01T08:39:58;11.40;;;5.10;;
23376;SDS011;14353;46.070;13.222;2023-03-01T08:42:25;10.52;;;5.57;;
23376;SDS011;14353;46.070;13.222;2023-03-01T08:44:51;7.80;;;5.75;;
23376;SDS011;14353;46.070;13.222;2023-03-01T08:47:17;7.97;;;5.60;;
23376;SDS011;14353;46.070;13.222;2023-03-01T08:49:43;8.27;;;5.63;;
23376;SDS011;14353;46.070;13.222;2023-03-01T08:52:08;9.13;;;5.57;;
23376;SDS011;14353;46.070;13.222;2023-03-01T08:54:34;11.00;;;5.85;;
23376;SDS011;14353;46.070;13.222;2023-03-01T08:57:02;11.00;;;5.55;;
23376;SDS011;14353;46.070;13.222;2023-03-01T08:59:28;9.98;;;5.93;;
23376;SDS011;14353;46.070;13.222;2023-03-01T09:01:55;14.63;;;5.90;;
23376;SDS011;14353;46.070;13.222;2023-03-01T09:04:20;11.32;;;6.00;;
23376;SDS011;14353;46.070;13.222;2023-03-01T09:06:46;13.07;;;5.53;;
23376;SDS011;14353;46.070;13.222;2023-03-01T09:09:14;12.65;;;5.85;;
23376;SDS011;14353;46.070;13.222;2023-03-01T09:11:43;9.93;;;6.18;;
23376;SDS011;14353;46.070;13.222;2023-03-01T09:14:11;9.40;;;5.68;;
23376;SDS011;14353;46.070;13.222;2023-03-01T09:16:37;9.80;;;5.88;;
23376;SDS011;14353;46.070;13.222;2023-03-01T09:19:04;10.38;;;5.60;;
23376;SDS011;14353;46.070;13.222;2023-03-01T09:21:30;8.85;;;5.28;;
23376;SDS011;14353;46.070;13.222;2023-03-01T09:23:57;11.30;;;5.70;;
23376;SDS011;14353;46.070;13.222;2023-03-01T09:26:23;9.85;;;5.22;;
23376;SDS011;14353;46.070;13.222;2023-03-01T09:28:50;9.43;;;5.55;;
23376;SDS011;14353;46.070;13.222;2023-03-01T09:31:19;8.48;;;5.20;;
23376;SDS011;14353;46.070;13.222;2023-03-01T09:33:47;9.57;;;5.68;;
23376;SDS011;14353;46.070;13.222;2023-03-01T09:36:17;9.60;;;5.57;;
23376;SDS011;14353;46.070;13.222;2023-03-01T09:38:46;7.53;;;4.97;;
23376;SDS011;14353;46.070;13.222;2023-03-01T09:44:07;7.22;;;5.07;;
23376;SDS011;14353;46.070;13.222;2023-03-01T09:46:56;11.25;;;5.55;;
23376;SDS011;14353;46.070;13.222;2023-03-01T09:49:23;10.15;;;5.13;;
23376;SDS011;14353;46.070;13.222;2023-03-01T09:54:28;7.47;;;4.72;;
23376;SDS011;14353;46.070;13.222;2023-03-01T10:02:43;8.68;;;4.53;;
23376;SDS011;14353;46.070;13.222;2023-03-01T10:10:40;8.65;;;4.75;;
23376;SDS011;14353;46.070;13.222;2023-03-01T10:15:54;10.27;;;5.05;;
23376;SDS011;14353;46.070;13.222;2023-03-01T10:18:40;11.70;;;4.90;;
23376;SDS011;14353;46.070;13.222;2023-03-01T10:21:15;11.15;;;4.82;;
23376;SDS011;14353;46.070;13.222;2023-03-01T10:23:46;8.02;;;4.78;;
23376;SDS011;14353;46.070;13.222;2023-03-01T10:28:59;10.05;;;4.57;;
23376;SDS011;14353;46.070;13.222;2023-03-01T10:31:39;9.38;;;4.70;;
23376;SDS011;14353;46.070;13.222;2023-03-01T10:34:15;6.82;;;4.50;;
23376;SDS011;14353;46.070;13.222;2023-03-01T10:36:49;8.55;;;4.60;;
23376;SDS011;14353;46.070;13.222;2023-03-01T10:39:19;10.25;;;5.00;;
23376;SDS011;14353;46.070;13.222;2023-03-01T10:44:40;10.65;;;4.63;;
23376;SDS011;14353;46.070;13.222;2023-03-01T10:47:16;9.45;;;4.32;;
23376;SDS011;14353;46.070;13.222;2023-03-01T10:52:23;11.15;;;4.40;;
23376;SDS011;14353;46.070;13.222;2023-03-01T10:54:52;10.25;;;4.70;;
23376;SDS011;14353;46.070;13.222;2023-03-01T10:57:29;6.97;;;4.38;;
23376;SDS011;14353;46.070;13.222;2023-03-01T11:00:10;7.63;;;4.55;;
23376;SDS011;14353;46.070;13.222;2023-03-01T11:02:40;11.00;;;4.63;;
23376;SDS011;14353;46.070;13.222;2023-03-01T11:07:51;6.70;;;4.47;;
23376;SDS011;14353;46.070;13.222;2023-03-01T11:10:20;11.43;;;4.90;;
23376;SDS011;14353;46.070;13.222;2023-03-01T11:12:51;12.63;;;4.45;;
23376;SDS011;14353;46.070;13.222;2023-03-01T11:15:27;8.48;;;4.40;;
23376;SDS011;14353;46.070;13.222;2023-03-01T11:17:54;10.20;;;4.50;;
23376;SDS011;14353;46.070;13.222;2023-03-01T11:20:25;9.88;;;4.80;;
23376;SDS011;14353;46.070;13.222;2023-03-01T11:23:10;8.68;;;4.75;;
23376;SDS011;14353;46.070;13.222;2023-03-01T11:25:42;9.32;;;4.47;;
23376;SDS011;14353;46.070;13.222;2023-03-01T11:28:16;10.18;;;4.30;;
23376;SDS011;14353;46.070;13.222;2023-03-01T11:38:42;14.75;;;5.25;;
23376;SDS011;14353;46.070;13.222;2023-03-01T11:41:12;12.55;;;5.53;;
23376;SDS011;14353;46.070;13.222;2023-03-01T11:46:25;9.15;;;4.97;;
23376;SDS011;14353;46.070;13.222;2023-03-01T11:54:25;10.43;;;5.68;;
23376;SDS011;14353;46.070;13.222;2023-03-01T11:56:55;11.50;;;5.60;;
23376;SDS011;14353;46.070;13.222;2023-03-01T11:59:34;12.48;;;5.40;;
23376;SDS011;14353;46.070;13.222;2023-03-01T12:08:14;9.65;;;5.40;;
23376;SDS011;14353;46.070;13.222;2023-03-01T12:13:59;14.98;;;5.13;;
23376;SDS011;14353;46.070;13.222;2023-03-01T12:16:57;16.08;;;5.28;;
23376;SDS011;14353;46.070;13.222;2023-03-01T12:38:33;13.10;;;5.60;;
23376;SDS011;14353;46.070;13.222;2023-03-01T12:41:22;11.05;;;5.38;;
23376;SDS011;14353;46.070;13.222;2023-03-01T12:49:33;10.75;;;5.05;;
23376;SDS011;14353;46.070;13.222;2023-03-01T12:54:49;10.43;;;4.85;;
23376;SDS011;14353;46.070;13.222;2023-03-01T12:57:28;13.85;;;5.72;;
23376;SDS011;14353;46.070;13.222;2023-03-01T13:00:10;10.65;;;4.90;;
23376;SDS011;14353;46.070;13.222;2023-03-01T13:02:54;9.02;;;4.95;;
23376;SDS011;14353;46.070;13.222;2023-03-01T13:10:49;10.85;;;5.03;;
23376;SDS011;14353;46.070;13.222;2023-03-01T13:13:21;12.30;;;4.97;;
23376;SDS011;14353;46.070;13.222;2023-03-01T13:15:50;11.18;;;4.85;;
23376;SDS011;14353;46.070;13.222;2023-03-01T13:20:48;12.95;;;4.78;;
23376;SDS011;14353;46.070;13.222;2023-03-01T13:31:08;13.43;;;5.22;;
23376;SDS011;14353;46.070;13.222;2023-03-01T13:34:01;11.02;;;5.00;;
23376;SDS011;14353;46.070;13.222;2023-03-01T13:39:26;9.27;;;5.45;;
23376;SDS011;14353;46.070;13.222;2023-03-01T13:44:49;11.65;;;5.10;;
23376;SDS011;14353;46.070;13.222;2023-03-01T13:47:16;10.70;;;5.95;;
23376;SDS011;14353;46.070;13.222;2023-03-01T13:49:59;12.90;;;5.30;;
23376;SDS011;14353;46.070;13.222;2023-03-01T13:55:44;8.88;;;5.65;;
23376;SDS011;14353;46.070;13.222;2023-03-01T13:58:18;10.05;;;5.18;;
23376;SDS011;14353;46.070;13.222;2023-03-01T14:00:54;9.68;;;4.90;;
23376;SDS011;14353;46.070;13.222;2023-03-01T14:03:21;11.65;;;5.82;;
23376;SDS011;14353;46.070;13.222;2023-03-01T14:06:02;9.85;;;5.40;;
23376;SDS011;14353;46.070;13.222;2023-03-01T14:08:34;15.30;;;5.68;;
23376;SDS011;14353;46.070;13.222;2023-03-01T14:16:28;9.95;;;5.55;;
23376;SDS011;14353;46.070;13.222;2023-03-01T14:21:36;7.93;;;5.18;;
23376;SDS011;14353;46.070;13.222;2023-03-01T14:24:01;10.68;;;5.20;;
23376;SDS011;14353;46.070;13.222;2023-03-01T14:26:28;10.52;;;5.10;;
23376;SDS011;14353;46.070;13.222;2023-03-01T14:28:57;7.00;;;4.95;;
23376;SDS011;14353;46.070;13.222;2023-03-01T14:34:01;9.65;;;5.20;;
23376;SDS011;14353;46.070;13.222;2023-03-01T14:36:28;8.80;;;4.97;;
23376;SDS011;14353;46.070;13.222;2023-03-01T14:38:56;8.15;;;5.28;;
23376;SDS011;14353;46.070;13.222;2023-03-01T14:41:30;9.43;;;4.65;;
23376;SDS011;14353;46.070;13.222;2023-03-01T14:44:05;9.77;;;5.03;;
23376;SDS011;14353;46.070;13.222;2023-03-01T14:46:34;10.52;;;5.28;;
23376;SDS011;14353;46.070;13.222;2023-03-01T14:49:04;8.13;;;4.95;;
23376;SDS011;14353;46.070;13.222;2023-03-01T14:51:41;9.50;;;4.70;;
23376;SDS011;14353;46.070;13.222;2023-03-01T14:56:50;7.88;;;4.75;;
23376;SDS011;14353;46.070;13.222;2023-03-01T14:59:18;12.15;;;4.90;;
23376;SDS011;14353;46.070;13.222;2023-03-01T15:01:47;8.43;;;4.80;;
23376;SDS011;14353;46.070;13.222;2023-03-01T15:04:13;10.95;;;5.82;;
23376;SDS011;14353;46.070;13.222;2023-03-01T15:06:40;12.15;;;4.80;;
23376;SDS011;14353;46.070;13.222;2023-03-01T15:09:06;8.63;;;4.80;;
23376;SDS011;14353;46.070;13.222;2023-03-01T15:11:37;7.65;;;4.57;;
23376;SDS011;14353;46.070;13.222;2023-03-01T15:14:25;11.52;;;4.63;;
23376;SDS011;14353;46.070;13.222;2023-03-01T15:16:52;9.43;;;5.03;;
23376;SDS011;14353;46.070;13.222;2023-03-01T15:19:17;10.75;;;5.30;;
23376;SDS011;14353;46.070;13.222;2023-03-01T15:21:44;11.48;;;4.90;;
23376;SDS011;14353;46.070;13.222;2023-03-01T15:26:52;8.90;;;4.85;;
23376;SDS011;14353;46.070;13.222;2023-03-01T15:29:23;10.88;;;4.43;;
23376;SDS011;14353;46.070;13.222;2023-03-01T15:34:35;7.07;;;4.68;;
23376;SDS011;14353;46.070;13.222;2023-03-01T15:37:03;8.27;;;4.68;;
23376;SDS011;14353;46.070;13.222;2023-03-01T15:39:53;9.07;;;4.50;;
23376;SDS011;14353;46.070;13.222;2023-03-01T15:45:07;10.00;;;4.93;;
23376;SDS011;14353;46.070;13.222;2023-03-01T15:47:39;8.80;;;4.38;;
23376;SDS011;14353;46.070;13.222;2023-03-01T15:50:12;5.97;;;4.20;;
23376;SDS011;14353;46.070;13.222;2023-03-01T15:52:48;8.85;;;5.15;;
23376;SDS011;14353;46.070;13.222;2023-03-01T15:55:19;8.38;;;4.80;;
23376;SDS011;14353;46.070;13.222;2023-03-01T15:57:46;7.82;;;4.57;;
23376;SDS011;14353;46.070;13.222;2023-03-01T16:00:13;6.10;;;4.40;;
23376;SDS011;14353;46.070;13.222;2023-03-01T16:02:41;5.38;;;4.32;;
23376;SDS011;14353;46.070;13.222;2023-03-01T16:05:27;7.30;;;4.18;;
23376;SDS011;14353;46.070;13.222;2023-03-01T16:07:55;8.25;;;4.22;;
23376;SDS011;14353;46.070;13.222;2023-03-01T16:10:21;6.10;;;3.90;;
23376;SDS011;14353;46.070;13.222;2023-03-01T16:12:49;7.63;;;4.13;;
23376;SDS011;14353;46.070;13.222;2023-03-01T16:15:30;5.28;;;3.88;;
23376;SDS011;14353;46.070;13.222;2023-03-01T16:17:57;7.88;;;4.30;;
23376;SDS011;14353;46.070;13.222;2023-03-01T16:20:23;4.97;;;3.83;;
23376;SDS011;14353;46.070;13.222;2023-03-01T16:22:49;9.15;;;4.18;;
23376;SDS011;14353;46.070;13.222;2023-03-01T16:25:17;9.60;;;4.47;;
23376;SDS011;14353;46.070;13.222;2023-03-01T16:27:47;9.18;;;4.10;;
23376;SDS011;14353;46.070;13.222;2023-03-01T16:30:15;5.95;;;4.07;;
23376;SDS011;14353;46.070;13.222;2023-03-01T16:32:43;6.30;;;4.28;;
23376;SDS011;14353;46.070;13.222;2023-03-01T16:35:12;8.75;;;4.22;;
23376;SDS011;14353;46.070;13.222;2023-03-01T16:37:39;8.07;;;4.18;;
23376;SDS011;14353;46.070;13.222;2023-03-01T16:40:06;6.72;;;3.80;;
23376;SDS011;14353;46.070;13.222;2023-03-01T16:42:42;6.95;;;3.97;;
23376;SDS011;14353;46.070;13.222;2023-03-01T16:45:08;7.07;;;4.13;;
23376;SDS011;14353;46.070;13.222;2023-03-01T16:47:34;6.68;;;4.07;;
23376;SDS011;14353;46.070;13.222;2023-03-01T16:50:00;5.38;;;4.00;;
23376;SDS011;14353;46.070;13.222;2023-03-01T16:52:26;5.15;;;3.70;;
23376;SDS011;14353;46.070;13.222;2023-03-01T16:54:52;7.63;;;3.95;;
23376;SDS011;14353;46.070;13.222;2023-03-01T16:57:18;15.15;;;4.90;;
23376;SDS011;14353;46.070;13.222;2023-03-01T16:59:44;7.60;;;3.67;;
23376;SDS011;14353;46.070;13.222;2023-03-01T17:02:10;6.70;;;3.97;;
23376;SDS011;14353;46.070;13.222;2023-03-01T17:04:38;6.78;;;3.60;;
23376;SDS011;14353;46.070;13.222;2023-03-01T17:07:04;11.20;;;4.07;;
23376;SDS011;14353;46.070;13.222;2023-03-01T17:09:33;6.40;;;3.90;;